Time,TemperatureF,DewpointF,PressureIn,WindDirection,WindDirectionDegrees,WindSpeedMPH,WindSpeedGustMPH,Humidity,HourlyPrecipIn,Conditions,Clouds,dailyrainin,SolarRadiationWatts/m^2,SoftwareType,DateUTC
2013-11-18 00:01:00,67.1,66.2,29.90,South,185,0.0,0.0,97,0.00,RA,,0.00,0.0,WeatherDisplay:10.37,2013-11-18 05:01:00,
2013-11-18 00:06:00,67.3,66.4,29.90,SE,145,0.0,0.0,97,0.00,RA,,0.00,0.0,WeatherDisplay:10.37,2013-11-18 05:06:00,
2013-11-18 00:11:00,67.3,66.4,29.90,SE,136,0.0,0.0,97,0.00,OVC,,0.00,0.0,WeatherDisplay:10.37,2013-11-18 05:11:00,
2013-11-18 00:16:00,67.3,66.4,29.89,SSE,165,0.0,0.0,97,0.00,OVC,,0.00,0.0,WeatherDisplay:10.37,2013-11-18 05:16:00,
2013-11-18 00:26:00,67.3,66.4,29.89,SSE,151,0.0,0.0,97,0.00,OVC,,0.00,0.0,WeatherDisplay:10.37,2013-11-18 05:26:00,
2013-11-18 00:31:00,67.3,66.4,29.89,SSE,167,0.0,0.0,97,0.00,OVC,,0.00,0.0,WeatherDisplay:10.37,2013-11-18 05:31:00,
2013-11-18 00:36:00,67.3,66.4,29.89,South,174,0.0,0.0,97,0.00,OVC,,0.00,0.0,WeatherDisplay:10.37,2013-11-18 05:36:00,
2013-11-18 00:41:00,67.3,66.4,29.89,South,190,0.0,0.0,97,0.00,OVC,,0.00,0.0,WeatherDisplay:10.37,2013-11-18 05:41:00,
2013-11-18 00:46:00,67.4,66.5,29.88,South,188,0.0,0.0,97,0.00,OVC,,0.00,0.0,WeatherDisplay:10.37,2013-11-18 05:46:00,
2013-11-18 00:51:00,67.4,66.5,29.87,SSE,167,0.0,0.0,97,0.00,OVC,,0.00,0.0,WeatherDisplay:10.37,2013-11-18 05:51:00,
2013-11-18 00:56:00,67.4,66.5,29.87,SSE,163,0.0,0.0,97,0.00,OVC,,0.00,0.0,WeatherDisplay:10.37,2013-11-18 05:56:00,
2013-11-18 01:01:00,67.4,66.5,29.87,SSE,151,0.0,0.0,97,0.00,OVC,,0.00,0.0,WeatherDisplay:10.37,2013-11-18 06:01:00,
2013-11-18 01:11:00,67.4,66.5,29.87,SE,146,0.0,2.0,97,0.00,OVC,,0.00,0.0,WeatherDisplay:10.37,2013-11-18 06:11:00,
2013-11-18 01:16:00,67.4,66.5,29.86,South,169,0.0,0.0,97,0.00,OVC,,0.00,0.0,WeatherDisplay:10.37,2013-11-18 06:16:00,
2013-11-18 01:21:00,67.4,66.5,29.86,SSE,166,0.0,0.0,97,0.00,OVC,,0.00,0.0,WeatherDisplay:10.37,2013-11-18 06:21:00,
2013-11-18 01:26:00,67.4,66.5,29.86,SSE,159,0.0,0.0,97,0.00,OVC,,0.00,0.0,WeatherDisplay:10.37,2013-11-18 06:26:00,
2013-11-18 01:31:00,67.4,66.5,29.85,South,173,0.0,6.0,97,0.00,OVC,,0.00,0.0,WeatherDisplay:10.37,2013-11-18 06:31:00,
2013-11-18 01:36:00,67.4,66.5,29.84,South,186,0.0,0.0,97,0.00,OVC,,0.00,0.0,WeatherDisplay:10.37,2013-11-18 06:36:00,
2013-11-18 01:41:00,67.4,66.5,29.84,South,190,0.0,0.0,97,0.00,OVC,,0.00,0.0,WeatherDisplay:10.37,2013-11-18 06:41:00,
2013-11-18 01:46:00,67.4,66.5,29.84,SSW,192,0.0,0.0,97,0.00,OVC,,0.00,0.0,WeatherDisplay:10.37,2013-11-18 06:46:00,
2013-11-18 01:51:00,67.4,66.5,29.84,South,191,0.0,0.0,97,0.00,OVC,,0.00,0.0,WeatherDisplay:10.37,2013-11-18 06:51:00,
2013-11-18 01:56:00,67.6,66.7,29.84,SSW,194,0.0,2.0,97,0.00,OVC,,0.00,0.0,WeatherDisplay:10.37,2013-11-18 06:56:00,
2013-11-18 02:01:00,67.6,66.7,29.84,SSW,194,0.0,1.0,97,0.00,OVC,,0.00,0.0,WeatherDisplay:10.37,2013-11-18 07:01:00,
2013-11-18 02:11:00,67.6,66.7,29.83,South,174,0.0,0.0,97,0.00,OVC,,0.00,0.0,WeatherDisplay:10.37,2013-11-18 07:11:00,
2013-11-18 02:16:00,67.7,66.8,29.83,SSE,160,0.0,5.0,97,0.00,OVC,,0.00,0.0,WeatherDisplay:10.37,2013-11-18 07:16:00,
2013-11-18 02:21:00,67.8,66.9,29.83,SSE,158,0.0,3.0,97,0.00,OVC,,0.00,0.0,WeatherDisplay:10.37,2013-11-18 07:21:00,
2013-11-18 02:26:00,67.8,66.9,29.83,SSE,166,0.0,2.0,97,0.00,OVC,,0.00,0.0,WeatherDisplay:10.37,2013-11-18 07:26:00,
2013-11-18 02:31:00,67.8,66.9,29.83,SSW,192,0.0,2.0,97,0.00,OVC,,0.00,0.0,WeatherDisplay:10.37,2013-11-18 07:31:00,
2013-11-18 02:36:00,67.8,66.9,29.82,SSW,195,0.0,1.0,97,0.00,OVC,,0.00,0.0,WeatherDisplay:10.37,2013-11-18 07:36:00,
2013-11-18 02:41:00,67.9,67.0,29.82,SSW,196,2.0,7.0,97,0.00,OVC,,0.00,0.0,WeatherDisplay:10.37,2013-11-18 07:41:00,
2013-11-18 02:46:00,67.9,67.0,29.82,South,191,0.0,1.0,97,0.00,OVC,,0.00,0.0,WeatherDisplay:10.37,2013-11-18 07:46:00,
2013-11-18 02:51:00,67.9,67.0,29.81,SSW,196,0.0,1.0,97,0.00,OVC,,0.00,0.0,WeatherDisplay:10.37,2013-11-18 07:51:00,
2013-11-18 02:56:00,67.9,67.0,29.81,SSE,148,0.0,0.0,97,0.00,OVC,,0.00,0.0,WeatherDisplay:10.37,2013-11-18 07:56:00,
2013-11-18 03:01:00,67.9,67.0,29.82,SE,141,0.0,0.0,97,0.00,OVC,,0.00,0.0,WeatherDisplay:10.37,2013-11-18 08:01:00,
2013-11-18 03:11:00,67.9,67.0,29.82,SW,215,0.0,0.0,97,0.00,OVC,,0.00,0.0,WeatherDisplay:10.37,2013-11-18 08:11:00,
2013-11-18 03:16:00,68.1,67.2,29.82,SSW,202,0.0,3.0,97,0.00,OVC,,0.00,0.0,WeatherDisplay:10.37,2013-11-18 08:16:00,
2013-11-18 03:21:00,68.1,67.2,29.82,South,191,0.0,2.0,97,0.00,OVC,,0.00,0.0,WeatherDisplay:10.37,2013-11-18 08:21:00,
2013-11-18 03:26:00,68.1,67.2,29.82,SSW,196,0.0,0.0,97,0.00,OVC,,0.00,0.0,WeatherDisplay:10.37,2013-11-18 08:26:00,
2013-11-18 03:31:00,68.1,67.2,29.82,SSW,202,0.0,0.0,97,0.00,OVC,,0.00,0.0,WeatherDisplay:10.37,2013-11-18 08:31:00,
2013-11-18 03:36:00,68.1,67.2,29.82,SSW,195,0.0,0.0,97,0.00,OVC,,0.00,0.0,WeatherDisplay:10.37,2013-11-18 08:36:00,
2013-11-18 03:41:00,68.1,67.2,29.82,South,188,0.0,0.0,97,0.00,OVC,,0.00,0.0,WeatherDisplay:10.37,2013-11-18 08:41:00,
2013-11-18 03:46:00,68.1,67.2,29.82,SSW,210,0.0,1.0,97,0.00,OVC,,0.00,0.0,WeatherDisplay:10.37,2013-11-18 08:46:00,
2013-11-18 03:51:00,68.1,67.2,29.82,SSW,211,0.0,0.0,97,0.00,OVC,,0.00,0.0,WeatherDisplay:10.37,2013-11-18 08:51:00,
2013-11-18 03:56:00,68.3,67.4,29.82,South,189,0.0,0.0,97,0.00,OVC,,0.00,0.0,WeatherDisplay:10.37,2013-11-18 08:56:00,
2013-11-18 04:01:00,68.3,67.4,29.81,South,183,0.0,0.0,97,0.00,OVC,,0.00,0.0,WeatherDisplay:10.37,2013-11-18 09:01:00,
2013-11-18 04:11:00,68.3,67.4,29.81,South,176,0.0,0.0,97,0.00,OVC,,0.00,0.0,WeatherDisplay:10.37,2013-11-18 09:11:00,
2013-11-18 04:16:00,68.3,67.4,29.81,South,180,0.0,0.0,97,0.00,OVC,,0.00,0.0,WeatherDisplay:10.37,2013-11-18 09:16:00,
2013-11-18 04:21:00,68.3,67.4,29.81,SSW,192,0.0,0.0,97,0.00,OVC,,0.00,0.0,WeatherDisplay:10.37,2013-11-18 09:21:00,
2013-11-18 04:26:00,68.4,67.5,29.81,SSW,195,0.0,0.0,97,0.00,OVC,,0.00,0.0,WeatherDisplay:10.37,2013-11-18 09:26:00,
2013-11-18 04:31:00,68.4,67.5,29.81,South,185,0.0,0.0,97,0.00,OVC,,0.00,0.0,WeatherDisplay:10.37,2013-11-18 09:31:00,
2013-11-18 04:36:00,68.4,67.5,29.81,South,172,0.0,0.0,97,0.00,OVC,,0.00,0.0,WeatherDisplay:10.37,2013-11-18 09:36:00,
2013-11-18 04:41:00,68.4,67.5,29.81,South,171,0.0,0.0,97,0.00,OVC,,0.00,0.0,WeatherDisplay:10.37,2013-11-18 09:41:00,
2013-11-18 04:46:00,68.4,67.5,29.81,South,173,0.0,0.0,97,0.00,OVC,,0.00,0.0,WeatherDisplay:10.37,2013-11-18 09:46:00,
2013-11-18 04:51:00,68.4,67.5,29.81,South,173,0.0,0.0,97,0.00,OVC,,0.00,0.0,WeatherDisplay:10.37,2013-11-18 09:51:00,
2013-11-18 04:56:00,68.4,67.5,29.81,SW,218,0.0,0.0,97,0.00,OVC,,0.00,0.0,WeatherDisplay:10.37,2013-11-18 09:56:00,
2013-11-18 05:01:00,68.4,67.5,29.81,WSW,250,0.0,0.0,97,0.00,OVC,,0.00,0.0,WeatherDisplay:10.37,2013-11-18 10:01:00,
2013-11-18 05:11:00,68.4,67.5,29.82,WSW,250,0.0,0.0,97,0.00,OVC,,0.00,0.0,WeatherDisplay:10.37,2013-11-18 10:11:00,
2013-11-18 05:16:00,68.4,67.5,29.82,WSW,253,0.0,4.0,97,0.00,OVC,,0.00,0.0,WeatherDisplay:10.37,2013-11-18 10:16:00,
2013-11-18 05:21:00,68.4,67.5,29.82,West,265,0.0,0.0,97,0.00,OVC,,0.00,0.0,WeatherDisplay:10.37,2013-11-18 10:21:00,
2013-11-18 05:26:00,68.4,67.5,29.82,West,271,0.0,0.0,97,0.00,OVC,,0.00,0.0,WeatherDisplay:10.37,2013-11-18 10:26:00,
2013-11-18 05:31:00,68.4,67.5,29.82,WSW,247,0.0,0.0,97,0.00,OVC,,0.00,0.0,WeatherDisplay:10.37,2013-11-18 10:31:00,
2013-11-18 05:36:00,68.6,67.7,29.82,SW,228,0.0,0.0,97,0.00,OVC,,0.00,0.0,WeatherDisplay:10.37,2013-11-18 10:36:00,
2013-11-18 05:41:00,68.6,67.7,29.82,SW,235,0.0,0.0,97,0.00,OVC,,0.00,0.0,WeatherDisplay:10.37,2013-11-18 10:41:00,
2013-11-18 05:46:00,68.6,67.7,29.82,SW,236,0.0,0.0,97,0.00,OVC,,0.00,0.0,WeatherDisplay:10.37,2013-11-18 10:46:00,
2013-11-18 05:51:00,68.5,67.6,29.82,SW,236,0.0,0.0,97,0.00,OVC,,0.00,0.0,WeatherDisplay:10.37,2013-11-18 10:51:00,
2013-11-18 05:56:00,68.4,67.2,29.82,SW,236,0.0,0.0,96,0.00,OVC,,0.00,0.0,WeatherDisplay:10.37,2013-11-18 10:56:00,
2013-11-18 06:01:00,68.4,67.5,29.82,SW,236,0.0,0.0,97,0.00,OVC,,0.00,0.0,WeatherDisplay:10.37,2013-11-18 11:01:00,
2013-11-18 06:11:00,68.3,67.5,29.82,SW,236,0.0,0.0,97,0.00,OVC,,0.00,0.0,WeatherDisplay:10.37,2013-11-18 11:11:00,
2013-11-18 06:16:00,68.3,67.1,29.82,SW,236,0.0,0.0,96,0.00,OVC,,0.00,0.0,WeatherDisplay:10.37,2013-11-18 11:16:00,
2013-11-18 06:21:00,68.3,67.1,29.82,SW,236,0.0,0.0,96,0.00,OVC,,0.00,0.0,WeatherDisplay:10.37,2013-11-18 11:21:00,
2013-11-18 06:26:00,68.2,67.0,29.82,SW,236,0.0,0.0,96,0.00,OVC,,0.00,0.0,WeatherDisplay:10.37,2013-11-18 11:26:00,
2013-11-18 06:31:00,68.1,66.9,29.83,WSW,250,0.0,2.0,96,0.01,RA,,0.01,0.0,WeatherDisplay:10.37,2013-11-18 11:31:00,
2013-11-18 06:36:00,67.5,66.3,29.84,NNW,330,1.0,8.0,96,0.03,RA,,0.03,0.0,WeatherDisplay:10.37,2013-11-18 11:36:00,
2013-11-18 06:41:00,66.3,64.9,29.84,NNW,347,0.0,5.0,95,0.04,RA,,0.04,0.0,WeatherDisplay:10.37,2013-11-18 11:41:00,
2013-11-18 06:46:00,65.8,64.3,29.85,North,1,0.0,0.0,95,0.05,RA,,0.05,0.0,WeatherDisplay:10.37,2013-11-18 11:46:00,
2013-11-18 06:51:00,65.3,63.9,29.85,North,1,0.0,0.0,95,0.05,RA,,0.05,0.0,WeatherDisplay:10.37,2013-11-18 11:51:00,
2013-11-18 06:56:00,65.0,63.5,29.85,North,4,0.0,0.0,95,0.05,BKN,,0.05,0.0,WeatherDisplay:10.37,2013-11-18 11:56:00,
2013-11-18 07:01:00,64.7,63.2,29.85,North,5,0.0,0.0,95,0.05,BKN,,0.05,0.0,WeatherDisplay:10.37,2013-11-18 12:01:00,
2013-11-18 07:11:00,64.3,62.8,29.85,North,5,0.0,0.0,95,0.05,BKN,,0.05,0.0,WeatherDisplay:10.37,2013-11-18 12:11:00,
2013-11-18 07:16:00,64.2,62.7,29.85,North,5,0.0,0.0,95,0.05,BKN,,0.05,0.0,WeatherDisplay:10.37,2013-11-18 12:16:00,
2013-11-18 07:21:00,64.0,62.5,29.86,North,5,0.0,0.0,95,0.05,BKN,,0.05,0.0,WeatherDisplay:10.37,2013-11-18 12:21:00,
2013-11-18 07:26:00,63.9,62.4,29.86,North,5,0.0,0.0,95,0.05,BKN,,0.05,13.8,WeatherDisplay:10.37,2013-11-18 12:26:00,
2013-11-18 07:31:00,63.9,62.4,29.86,North,5,0.0,0.0,95,0.04,BKN,,0.05,13.8,WeatherDisplay:10.37,2013-11-18 12:31:00,
2013-11-18 07:36:00,63.7,62.2,29.87,North,5,0.0,0.0,95,0.02,BKN,,0.05,24.1,WeatherDisplay:10.37,2013-11-18 12:36:00,
2013-11-18 07:41:00,63.7,62.2,29.87,North,5,0.0,0.0,95,0.01,BKN,,0.05,44.9,WeatherDisplay:10.37,2013-11-18 12:41:00,
2013-11-18 07:46:00,63.7,62.5,29.87,North,5,0.0,0.0,96,0.00,BKN,,0.05,36.8,WeatherDisplay:10.37,2013-11-18 12:46:00,
2013-11-18 07:51:00,63.7,62.5,29.87,North,5,0.0,0.0,96,0.00,BKN,,0.05,29.9,WeatherDisplay:10.37,2013-11-18 12:51:00,
2013-11-18 07:56:00,63.7,62.5,29.87,North,5,0.0,0.0,96,0.00,BKN,,0.05,42.5,WeatherDisplay:10.37,2013-11-18 12:56:00,
2013-11-18 08:01:00,63.7,62.5,29.87,North,5,0.0,0.0,96,0.00,BKN,,0.05,58.6,WeatherDisplay:10.37,2013-11-18 13:01:00,
2013-11-18 08:11:00,63.7,62.5,29.87,North,5,0.0,0.0,96,0.00,BKN,,0.05,48.3,WeatherDisplay:10.37,2013-11-18 13:11:00,
2013-11-18 08:16:00,63.9,62.7,29.87,North,5,0.0,0.0,96,0.00,BKN,,0.05,56.4,WeatherDisplay:10.37,2013-11-18 13:16:00,
2013-11-18 08:21:00,63.9,62.7,29.87,North,5,0.0,0.0,96,0.00,BKN,,0.05,54.0,WeatherDisplay:10.37,2013-11-18 13:21:00,
2013-11-18 08:26:00,63.9,62.7,29.87,North,5,0.0,0.0,96,0.00,BKN,,0.05,42.5,WeatherDisplay:10.37,2013-11-18 13:26:00,
2013-11-18 08:31:00,64.0,62.8,29.87,North,5,0.0,0.0,96,0.00,BKN,,0.05,34.5,WeatherDisplay:10.37,2013-11-18 13:31:00,
2013-11-18 08:36:00,64.0,62.8,29.88,North,5,0.0,0.0,96,0.00,BKN,,0.05,87.4,WeatherDisplay:10.37,2013-11-18 13:36:00,
2013-11-18 08:41:00,64.0,62.8,29.88,North,5,0.0,0.0,96,0.00,BKN,,0.05,90.8,WeatherDisplay:10.37,2013-11-18 13:41:00,
2013-11-18 08:46:00,64.2,63.0,29.88,North,5,0.0,0.0,96,0.00,BKN,,0.05,77.0,WeatherDisplay:10.37,2013-11-18 13:46:00,
2013-11-18 08:51:00,64.3,63.1,29.89,North,5,0.0,0.0,96,0.00,BKN,,0.05,120.8,WeatherDisplay:10.37,2013-11-18 13:51:00,
2013-11-18 08:56:00,64.3,63.1,29.89,North,5,0.0,0.0,96,0.00,BKN,,0.05,143.8,WeatherDisplay:10.37,2013-11-18 13:56:00,
2013-11-18 09:01:00,64.5,63.3,29.88,North,5,0.0,0.0,96,0.00,BKN,,0.05,151.8,WeatherDisplay:10.37,2013-11-18 14:01:00,
2013-11-18 09:11:00,64.6,63.5,29.88,North,5,0.0,0.0,96,0.00,BKN,,0.05,120.8,WeatherDisplay:10.37,2013-11-18 14:11:00,
2013-11-18 09:16:00,64.7,63.5,29.88,North,5,0.0,0.0,96,0.00,BKN,,0.05,133.4,WeatherDisplay:10.37,2013-11-18 14:16:00,
2013-11-18 09:21:00,64.5,63.3,29.88,North,5,0.0,0.0,96,0.00,BKN,,0.05,117.3,WeatherDisplay:10.37,2013-11-18 14:21:00,
2013-11-18 09:36:00,64.3,63.1,29.89,North,5,0.0,0.0,96,0.00,BKN,,0.05,66.7,WeatherDisplay:10.37,2013-11-18 14:36:00,
2013-11-18 09:41:00,64.2,63.0,29.89,North,5,0.0,0.0,96,0.00,BKN,,0.05,117.3,WeatherDisplay:10.37,2013-11-18 14:41:00,
2013-11-18 09:46:00,64.0,62.8,29.89,North,7,0.0,0.0,96,0.00,BKN,,0.05,131.1,WeatherDisplay:10.37,2013-11-18 14:46:00,
2013-11-18 09:51:00,63.6,62.2,29.89,NNE,12,0.0,0.0,95,0.00,BKN,,0.05,62.1,WeatherDisplay:10.37,2013-11-18 14:51:00,
2013-11-18 10:01:00,63.9,60.6,29.89,North,6,0.0,0.0,89,0.00,SCT,,0.05,512.9,WeatherDisplay:10.37,2013-11-18 15:01:00,
2013-11-18 10:11:00,64.7,58.4,29.88,North,360,0.0,0.0,80,0.00,SCT,,0.05,301.3,WeatherDisplay:10.37,2013-11-18 15:11:00,
2013-11-18 10:16:00,65.2,58.1,29.88,North,6,0.0,0.0,78,0.00,SCT,,0.05,511.8,WeatherDisplay:10.37,2013-11-18 15:16:00,
2013-11-18 10:21:00,65.6,57.1,29.87,NNE,13,0.0,0.0,74,0.00,SCT,,0.05,479.6,WeatherDisplay:10.37,2013-11-18 15:21:00,
2013-11-18 10:36:00,67.6,55.0,29.87,NNE,13,0.0,0.0,64,0.00,SCT,,0.05,368.0,WeatherDisplay:10.37,2013-11-18 15:36:00,
2013-11-18 10:41:00,68.2,55.2,29.87,NNE,13,0.0,0.0,63,0.00,SCT,,0.05,381.8,WeatherDisplay:10.37,2013-11-18 15:41:00,
2013-11-18 10:46:00,68.9,54.9,29.87,NNW,332,0.0,2.0,61,0.00,SCT,,0.05,159.8,WeatherDisplay:10.37,2013-11-18 15:46:00,
2013-11-18 10:51:00,69.2,54.7,29.87,West,260,0.0,0.0,60,0.00,SCT,,0.05,285.2,WeatherDisplay:10.37,2013-11-18 15:51:00,
2013-11-18 10:56:00,69.6,56.9,29.87,West,260,0.0,0.0,64,0.00,SCT,,0.05,216.2,WeatherDisplay:10.37,2013-11-18 15:56:00,
2013-11-18 11:01:00,69.4,56.7,29.87,West,274,0.0,0.0,64,0.00,FEW,,0.05,107.0,WeatherDisplay:10.37,2013-11-18 16:01:00,
2013-11-18 11:11:00,69.1,56.4,29.87,NNW,348,0.0,0.0,64,0.00,FEW,,0.05,112.7,WeatherDisplay:10.37,2013-11-18 16:11:00,
2013-11-18 11:16:00,68.9,56.2,29.86,NNW,348,0.0,0.0,64,0.00,FEW,,0.05,87.4,WeatherDisplay:10.37,2013-11-18 16:16:00,
2013-11-18 11:21:00,68.8,55.7,29.86,NNW,348,0.0,0.0,63,0.00,FEW,,0.05,240.3,WeatherDisplay:10.37,2013-11-18 16:21:00,
2013-11-18 11:26:00,68.8,55.7,29.86,NNW,335,0.0,0.0,63,0.00,FEW,,0.05,384.1,WeatherDisplay:10.37,2013-11-18 16:26:00,
2013-11-18 11:31:00,69.2,54.7,29.85,WNW,290,0.0,0.0,60,0.00,FEW,,0.05,290.9,WeatherDisplay:10.37,2013-11-18 16:31:00,
2013-11-18 11:36:00,69.6,54.6,29.85,West,263,0.0,0.0,59,0.00,FEW,,0.05,189.8,WeatherDisplay:10.37,2013-11-18 16:36:00,
2013-11-18 11:41:00,69.8,54.8,29.85,WSW,256,0.0,0.0,59,0.00,FEW,,0.05,125.3,WeatherDisplay:10.37,2013-11-18 16:41:00,
2013-11-18 11:46:00,69.9,55.4,29.84,WNW,291,0.0,0.0,60,0.00,FEW,,0.05,279.4,WeatherDisplay:10.37,2013-11-18 16:46:00,
2013-11-18 11:51:00,70.1,56.5,29.84,NW,323,0.0,0.0,62,0.00,FEW,,0.05,296.7,WeatherDisplay:10.37,2013-11-18 16:51:00,
2013-11-18 11:56:00,70.4,54.9,29.84,WNW,296,0.0,0.0,58,0.00,FEW,,0.05,496.8,WeatherDisplay:10.37,2013-11-18 16:56:00,
2013-11-18 12:01:00,70.7,56.2,29.83,NW,306,0.0,1.0,60,0.00,SCT,,0.05,343.9,WeatherDisplay:10.37,2013-11-18 17:01:00,
2013-11-18 12:11:00,71.3,56.2,29.83,South,187,0.0,0.0,59,0.00,SCT,,0.05,359.9,WeatherDisplay:10.37,2013-11-18 17:11:00,
2013-11-18 12:16:00,71.5,56.9,29.82,South,169,0.0,0.0,60,0.00,SCT,,0.05,299.0,WeatherDisplay:10.37,2013-11-18 17:16:00,
2013-11-18 12:21:00,71.5,56.9,29.82,SW,218,0.0,2.0,60,0.00,SCT,,0.05,236.9,WeatherDisplay:10.37,2013-11-18 17:21:00,
2013-11-18 12:26:00,71.6,57.0,29.82,North,10,0.0,0.0,60,0.00,SCT,,0.05,319.7,WeatherDisplay:10.37,2013-11-18 17:26:00,
2013-11-18 12:31:00,72.0,57.8,29.82,NE,47,0.0,0.0,61,0.00,SCT,,0.05,66.7,WeatherDisplay:10.37,2013-11-18 17:31:00,
2013-11-18 12:36:00,72.1,57.9,29.82,SW,219,0.0,4.0,61,0.00,SCT,,0.05,194.3,WeatherDisplay:10.37,2013-11-18 17:36:00,
2013-11-18 12:41:00,72.3,58.5,29.82,WNW,295,0.0,0.0,62,0.00,SCT,,0.05,56.4,WeatherDisplay:10.37,2013-11-18 17:41:00,
2013-11-18 12:46:00,72.5,57.8,29.82,NW,317,0.0,3.0,60,0.00,SCT,,0.05,277.1,WeatherDisplay:10.37,2013-11-18 17:46:00,
2013-11-18 12:51:00,72.7,58.0,29.82,NW,318,0.0,0.0,60,0.00,SCT,,0.05,95.5,WeatherDisplay:10.37,2013-11-18 17:51:00,
2013-11-18 12:56:00,72.7,58.5,29.82,NW,321,0.0,2.0,61,0.00,SCT,,0.05,101.2,WeatherDisplay:10.37,2013-11-18 17:56:00,
2013-11-18 13:01:00,72.8,57.6,29.81,WNW,283,0.0,2.0,59,0.00,FEW,,0.05,98.9,WeatherDisplay:10.37,2013-11-18 18:01:00,
2013-11-18 13:11:00,73.0,58.3,29.81,WSW,245,0.0,3.0,60,0.00,FEW,,0.05,72.5,WeatherDisplay:10.37,2013-11-18 18:11:00,
2013-11-18 13:16:00,73.0,57.8,29.81,SW,215,0.0,2.0,59,0.00,FEW,,0.05,61.0,WeatherDisplay:10.37,2013-11-18 18:16:00,
2013-11-18 13:21:00,73.2,58.5,29.81,WSW,241,0.0,1.0,60,0.00,FEW,,0.05,61.0,WeatherDisplay:10.37,2013-11-18 18:21:00,
2013-11-18 13:26:00,73.2,58.5,29.81,West,280,0.0,0.0,60,0.00,FEW,,0.05,103.5,WeatherDisplay:10.37,2013-11-18 18:26:00,
2013-11-18 13:31:00,73.2,58.0,29.81,West,280,0.0,1.0,59,0.00,FEW,,0.05,64.4,WeatherDisplay:10.37,2013-11-18 18:31:00,
2013-11-18 13:36:00,73.3,58.1,29.81,West,263,1.0,3.0,59,0.00,FEW,,0.05,58.6,WeatherDisplay:10.37,2013-11-18 18:36:00,
2013-11-18 13:41:00,73.3,57.6,29.81,WSW,244,0.0,2.0,58,0.00,FEW,,0.05,85.1,WeatherDisplay:10.37,2013-11-18 18:41:00,
2013-11-18 13:46:00,73.5,58.8,29.80,SW,227,0.0,0.0,60,0.00,FEW,,0.05,287.5,WeatherDisplay:10.37,2013-11-18 18:46:00,
2013-11-18 13:51:00,73.7,58.4,29.80,NW,324,0.0,0.0,59,0.00,FEW,,0.05,155.3,WeatherDisplay:10.37,2013-11-18 18:51:00,
2013-11-18 13:56:00,73.7,58.5,29.80,North,3,0.0,1.0,59,0.00,FEW,,0.05,85.1,WeatherDisplay:10.37,2013-11-18 18:56:00,
2013-11-18 14:01:00,73.9,58.2,29.80,WNW,298,0.0,1.0,58,0.00,SCT,,0.05,62.1,WeatherDisplay:10.37,2013-11-18 19:01:00,
2013-11-18 14:11:00,74.0,58.3,29.79,West,262,0.0,2.0,58,0.00,SCT,,0.05,58.6,WeatherDisplay:10.37,2013-11-18 19:11:00,
2013-11-18 14:16:00,74.0,57.8,29.79,WNW,301,0.0,0.0,57,0.00,SCT,,0.05,131.1,WeatherDisplay:10.37,2013-11-18 19:16:00,
2013-11-18 14:21:00,74.2,58.5,29.79,NW,312,0.0,0.0,58,0.00,SCT,,0.05,325.4,WeatherDisplay:10.37,2013-11-18 19:21:00,
2013-11-18 14:26:00,74.4,58.2,29.79,NW,317,0.0,0.0,57,0.00,SCT,,0.05,335.8,WeatherDisplay:10.37,2013-11-18 19:26:00,
2013-11-18 14:31:00,74.4,58.2,29.79,WNW,286,0.0,0.0,57,0.00,SCT,,0.05,175.9,WeatherDisplay:10.37,2013-11-18 19:31:00,
2013-11-18 14:36:00,74.6,57.9,29.79,West,269,0.0,0.0,56,0.00,SCT,,0.05,204.7,WeatherDisplay:10.37,2013-11-18 19:36:00,
2013-11-18 14:41:00,74.7,58.0,29.79,WSW,257,0.0,3.0,56,0.00,SCT,,0.05,129.9,WeatherDisplay:10.37,2013-11-18 19:41:00,
2013-11-18 14:46:00,74.9,58.6,29.79,WSW,255,0.0,0.0,57,0.00,SCT,,0.05,154.1,WeatherDisplay:10.37,2013-11-18 19:46:00,
2013-11-18 14:51:00,75.3,57.5,29.79,West,269,0.0,2.0,54,0.00,SCT,,0.05,253.0,WeatherDisplay:10.37,2013-11-18 19:51:00,
2013-11-18 14:56:00,75.5,58.7,29.79,NNW,341,0.0,0.0,56,0.00,SCT,,0.05,117.3,WeatherDisplay:10.37,2013-11-18 19:56:00,
2013-11-18 15:01:00,75.6,58.8,29.79,North,359,0.0,1.0,56,0.00,SCT,,0.05,138.0,WeatherDisplay:10.37,2013-11-18 20:01:00,
2013-11-18 15:11:00,75.3,56.5,29.79,North,9,0.0,0.0,52,0.00,SCT,,0.05,115.0,WeatherDisplay:10.37,2013-11-18 20:11:00,
2013-11-18 15:16:00,75.1,56.3,29.79,NNW,338,0.0,0.0,52,0.00,SCT,,0.05,85.1,WeatherDisplay:10.37,2013-11-18 20:16:00,
2013-11-18 15:21:00,74.9,56.1,29.79,NW,319,0.0,0.0,52,0.00,SCT,,0.05,62.1,WeatherDisplay:10.37,2013-11-18 20:21:00,
2013-11-18 15:26:00,74.7,55.4,29.79,WSW,251,0.0,0.0,51,0.00,SCT,,0.05,52.9,WeatherDisplay:10.37,2013-11-18 20:26:00,
2013-11-18 15:31:00,74.6,56.3,29.79,WSW,243,0.0,3.0,53,0.00,SCT,,0.05,66.7,WeatherDisplay:10.37,2013-11-18 20:31:00,
2013-11-18 15:36:00,74.4,56.2,29.79,NW,319,0.0,5.0,53,0.00,SCT,,0.05,61.0,WeatherDisplay:10.37,2013-11-18 20:36:00,
2013-11-18 15:41:00,74.0,54.2,29.79,West,281,0.0,0.0,50,0.00,SCT,,0.05,56.4,WeatherDisplay:10.37,2013-11-18 20:41:00,
2013-11-18 15:46:00,73.9,54.6,29.79,West,263,0.0,0.0,51,0.00,SCT,,0.05,28.8,WeatherDisplay:10.37,2013-11-18 20:46:00,
2013-11-18 15:51:00,73.5,54.3,29.79,West,263,0.0,0.0,51,0.00,SCT,,0.05,56.4,WeatherDisplay:10.37,2013-11-18 20:51:00,
2013-11-18 15:56:00,73.2,54.0,29.79,West,263,0.0,1.0,51,0.00,SCT,,0.05,36.8,WeatherDisplay:10.37,2013-11-18 20:56:00,
2013-11-18 16:01:00,72.8,52.5,29.79,West,278,0.0,3.0,49,0.00,SCT,,0.05,29.9,WeatherDisplay:10.37,2013-11-18 21:01:00,
2013-11-18 16:11:00,72.3,50.9,29.79,NW,306,0.0,1.0,47,0.00,SCT,,0.05,26.4,WeatherDisplay:10.37,2013-11-18 21:11:00,
2013-11-18 16:16:00,72.1,50.2,29.79,WNW,290,0.0,0.0,46,0.00,SCT,,0.05,24.1,WeatherDisplay:10.37,2013-11-18 21:16:00,
2013-11-18 16:21:00,72.0,51.2,29.79,West,274,0.0,0.0,48,0.00,SCT,,0.05,24.1,WeatherDisplay:10.37,2013-11-18 21:21:00,
2013-11-18 16:26:00,71.7,49.8,29.79,WNW,291,0.0,0.0,46,0.00,SCT,,0.05,20.7,WeatherDisplay:10.37,2013-11-18 21:26:00,
2013-11-18 16:31:00,71.5,47.8,29.80,NNW,334,0.0,0.0,43,0.00,SCT,,0.05,21.9,WeatherDisplay:10.37,2013-11-18 21:31:00,
2013-11-18 16:36:00,71.1,47.5,29.80,NNW,347,0.0,0.0,43,0.00,SCT,,0.05,20.7,WeatherDisplay:10.37,2013-11-18 21:36:00,
2013-11-18 16:41:00,70.9,48.5,29.80,NNW,333,0.0,0.0,45,0.00,SCT,,0.05,16.1,WeatherDisplay:10.37,2013-11-18 21:41:00,
2013-11-18 16:46:00,70.8,47.2,29.81,NNW,340,0.0,1.0,43,0.00,SCT,,0.05,12.7,WeatherDisplay:10.37,2013-11-18 21:46:00,
2013-11-18 16:51:00,70.4,46.8,29.81,NNW,344,0.0,0.0,43,0.00,SCT,,0.05,8.1,WeatherDisplay:10.37,2013-11-18 21:51:00,
2013-11-18 16:56:00,70.3,48.5,29.81,NNW,332,0.0,0.0,46,0.00,SCT,,0.05,5.8,WeatherDisplay:10.37,2013-11-18 21:56:00,
2013-11-18 17:01:00,69.9,49.3,29.82,NNW,344,0.0,0.0,48,0.00,SCT,,0.05,0.0,WeatherDisplay:10.37,2013-11-18 22:01:00,
2013-11-18 17:11:00,69.5,51.1,29.82,North,360,0.0,0.0,52,0.00,SCT,,0.05,0.0,WeatherDisplay:10.37,2013-11-18 22:11:00,
2013-11-18 17:16:00,69.3,51.4,29.82,North,360,0.0,0.0,53,0.00,SCT,,0.05,0.0,WeatherDisplay:10.37,2013-11-18 22:16:00,
2013-11-18 17:21:00,68.9,51.1,29.83,North,8,0.0,0.0,53,0.00,SCT,,0.05,0.0,WeatherDisplay:10.37,2013-11-18 22:21:00,
2013-11-18 17:26:00,68.6,51.3,29.83,NNE,17,0.0,0.0,54,0.00,SCT,,0.05,0.0,WeatherDisplay:10.37,2013-11-18 22:26:00,
2013-11-18 17:31:00,68.3,51.5,29.83,NNE,15,0.0,0.0,55,0.00,SCT,,0.05,0.0,WeatherDisplay:10.37,2013-11-18 22:31:00,
2013-11-18 17:36:00,68.1,51.8,29.83,NNE,14,0.0,0.0,56,0.00,SCT,,0.05,0.0,WeatherDisplay:10.37,2013-11-18 22:36:00,
2013-11-18 17:41:00,67.8,51.0,29.83,NNE,15,0.0,0.0,55,0.00,SCT,,0.05,0.0,WeatherDisplay:10.37,2013-11-18 22:41:00,
2013-11-18 17:46:00,67.6,51.3,29.84,NNE,14,0.0,0.0,56,0.00,SCT,,0.05,0.0,WeatherDisplay:10.37,2013-11-18 22:46:00,
2013-11-18 17:51:00,67.3,50.6,29.84,NNE,14,0.0,0.0,55,0.00,SCT,,0.05,0.0,WeatherDisplay:10.37,2013-11-18 22:51:00,
2013-11-18 17:56:00,67.1,50.9,29.84,NNE,15,0.0,0.0,56,0.00,SCT,,0.05,0.0,WeatherDisplay:10.37,2013-11-18 22:56:00,
2013-11-18 18:01:00,66.8,50.6,29.84,NNE,15,0.0,0.0,56,0.00,SCT,,0.05,0.0,WeatherDisplay:10.37,2013-11-18 23:01:00,
2013-11-18 18:11:00,66.2,51.4,29.84,NNE,14,0.0,0.0,59,0.00,SCT,,0.05,0.0,WeatherDisplay:10.37,2013-11-18 23:11:00,
2013-11-18 18:16:00,65.8,50.6,29.85,NNE,14,0.0,0.0,58,0.00,SCT,,0.05,0.0,WeatherDisplay:10.37,2013-11-18 23:16:00,
2013-11-18 18:21:00,65.5,50.8,29.85,NNE,14,0.0,0.0,59,0.00,SCT,,0.05,0.0,WeatherDisplay:10.37,2013-11-18 23:21:00,
2013-11-18 18:26:00,65.2,50.5,29.85,NNE,14,0.0,0.0,59,0.00,SCT,,0.05,0.0,WeatherDisplay:10.37,2013-11-18 23:26:00,
2013-11-18 18:31:00,64.7,50.5,29.85,NNE,15,0.0,0.0,60,0.00,SCT,,0.05,0.0,WeatherDisplay:10.37,2013-11-18 23:31:00,
2013-11-18 18:36:00,64.3,50.6,29.85,NNE,15,0.0,0.0,61,0.00,SCT,,0.05,0.0,WeatherDisplay:10.37,2013-11-18 23:36:00,
2013-11-18 18:41:00,64.0,49.8,29.85,NNE,15,0.0,0.0,60,0.00,SCT,,0.05,0.0,WeatherDisplay:10.37,2013-11-18 23:41:00,
2013-11-18 18:46:00,63.4,48.9,29.86,NNE,14,0.0,0.0,59,0.00,SCT,,0.05,0.0,WeatherDisplay:10.37,2013-11-18 23:46:00,
2013-11-18 18:51:00,63.1,48.5,29.86,NNE,14,0.0,0.0,59,0.00,SCT,,0.05,0.0,WeatherDisplay:10.37,2013-11-18 23:51:00,
2013-11-18 18:56:00,62.7,48.1,29.86,NNE,14,0.0,0.0,59,0.00,SCT,,0.05,0.0,WeatherDisplay:10.37,2013-11-18 23:56:00,
2013-11-18 19:01:00,62.4,47.9,29.87,NNE,15,0.0,0.0,59,0.00,FEW,,0.05,0.0,WeatherDisplay:10.37,2013-11-19 00:01:00,
2013-11-18 19:11:00,62.0,46.6,29.87,North,6,0.0,0.0,57,0.00,FEW,,0.05,0.0,WeatherDisplay:10.37,2013-11-19 00:11:00,
2013-11-18 19:16:00,61.6,45.8,29.87,North,0,0.0,0.0,56,0.00,FEW,,0.05,0.0,WeatherDisplay:10.37,2013-11-19 00:16:00,
2013-11-18 19:21:00,61.5,45.2,29.87,North,354,0.0,0.0,55,0.00,FEW,,0.05,0.0,WeatherDisplay:10.37,2013-11-19 00:21:00,
2013-11-18 19:26:00,61.5,44.2,29.87,NNW,348,0.0,0.0,53,0.00,FEW,,0.05,0.0,WeatherDisplay:10.37,2013-11-19 00:26:00,
2013-11-18 19:31:00,61.3,44.5,29.87,NNW,348,0.0,0.0,54,0.00,FEW,,0.05,0.0,WeatherDisplay:10.37,2013-11-19 00:31:00,
2013-11-18 19:36:00,61.3,44.0,29.87,NNW,348,0.0,0.0,53,0.00,FEW,,0.05,0.0,WeatherDisplay:10.37,2013-11-19 00:36:00,
2013-11-18 19:41:00,61.2,43.4,29.87,NNW,348,0.0,0.0,52,0.00,FEW,,0.05,0.0,WeatherDisplay:10.37,2013-11-19 00:41:00,
2013-11-18 19:46:00,61.0,43.8,29.88,NNW,348,0.0,0.0,53,0.00,FEW,,0.05,0.0,WeatherDisplay:10.37,2013-11-19 00:46:00,
2013-11-18 19:51:00,61.0,44.2,29.88,NNW,348,0.0,0.0,54,0.00,FEW,,0.05,0.0,WeatherDisplay:10.37,2013-11-19 00:51:00,
2013-11-18 19:56:00,60.7,43.0,29.88,NNW,348,0.0,0.0,52,0.00,FEW,,0.05,0.0,WeatherDisplay:10.37,2013-11-19 00:56:00,
2013-11-18 20:01:00,60.5,42.3,29.88,North,349,0.0,0.0,51,0.00,FEW,,0.05,0.0,WeatherDisplay:10.37,2013-11-19 01:01:00,
2013-11-18 20:11:00,60.4,43.2,29.89,North,349,0.0,0.0,53,0.00,FEW,,0.05,0.0,WeatherDisplay:10.37,2013-11-19 01:11:00,
2013-11-18 20:16:00,60.1,40.9,29.89,North,353,0.0,1.0,49,0.00,FEW,,0.05,0.0,WeatherDisplay:10.37,2013-11-19 01:16:00,
2013-11-18 20:21:00,60.1,39.8,29.89,North,349,0.0,0.0,47,0.00,FEW,,0.05,0.0,WeatherDisplay:10.37,2013-11-19 01:21:00,
2013-11-18 20:31:00,60.1,39.2,29.90,North,353,0.0,0.0,46,0.00,FEW,,0.05,0.0,WeatherDisplay:10.37,2013-11-19 01:31:00,
2013-11-18 20:36:00,60.1,38.7,29.90,NNE,12,0.0,1.0,45,0.00,FEW,,0.05,0.0,WeatherDisplay:10.37,2013-11-19 01:36:00,
2013-11-18 20:41:00,60.1,38.1,29.90,NNE,29,0.0,0.0,44,0.00,FEW,,0.05,0.0,WeatherDisplay:10.37,2013-11-19 01:41:00,
2013-11-18 20:46:00,60.1,36.9,29.90,NNE,18,0.0,0.0,42,0.00,FEW,,0.05,0.0,WeatherDisplay:10.37,2013-11-19 01:46:00,
2013-11-18 20:56:00,59.9,37.3,29.90,North,4,0.0,1.0,43,0.00,FEW,,0.05,0.0,WeatherDisplay:10.37,2013-11-19 01:56:00,
2013-11-18 21:01:00,59.8,35.4,29.90,North,355,0.0,0.0,40,0.00,CLR,,0.05,0.0,WeatherDisplay:10.37,2013-11-19 02:01:00,
2013-11-18 21:11:00,59.6,35.9,29.90,NNE,14,0.0,0.0,41,0.00,CLR,,0.05,0.0,WeatherDisplay:10.37,2013-11-19 02:11:00,
2013-11-18 21:16:00,59.5,35.1,29.91,North,359,0.0,1.0,40,0.00,CLR,,0.05,0.0,WeatherDisplay:10.37,2013-11-19 02:16:00,
2013-11-18 21:21:00,59.3,35.0,29.91,North,7,0.0,0.0,40,0.00,CLR,,0.05,0.0,WeatherDisplay:10.37,2013-11-19 02:21:00,
2013-11-18 21:26:00,59.2,34.9,29.91,NNE,13,0.0,0.0,40,0.00,CLR,,0.05,0.0,WeatherDisplay:10.37,2013-11-19 02:26:00,
2013-11-18 21:31:00,59.0,35.9,29.91,NNE,14,0.0,0.0,42,0.00,CLR,,0.05,0.0,WeatherDisplay:10.37,2013-11-19 02:31:00,
2013-11-18 21:36:00,58.7,35.1,29.92,NNE,12,0.0,0.0,41,0.00,CLR,,0.05,0.0,WeatherDisplay:10.37,2013-11-19 02:36:00,
2013-11-18 21:41:00,58.6,34.3,29.92,North,10,0.0,0.0,40,0.00,CLR,,0.05,0.0,WeatherDisplay:10.37,2013-11-19 02:41:00,
2013-11-18 21:46:00,58.4,35.4,29.92,North,10,0.0,0.0,42,0.00,CLR,,0.05,0.0,WeatherDisplay:10.37,2013-11-19 02:46:00,
2013-11-18 21:51:00,58.1,34.5,29.92,North,10,0.0,0.0,41,0.00,CLR,,0.05,0.0,WeatherDisplay:10.37,2013-11-19 02:51:00,
2013-11-18 21:56:00,58.0,35.0,29.92,North,7,0.0,0.0,42,0.00,CLR,,0.05,0.0,WeatherDisplay:10.37,2013-11-19 02:56:00,
2013-11-18 22:01:00,57.6,33.4,29.92,North,4,0.0,0.0,40,0.00,CLR,,0.05,0.0,WeatherDisplay:10.37,2013-11-19 03:01:00,
2013-11-18 22:06:00,57.5,34.0,29.92,North,360,0.0,2.0,41,0.00,CLR,,0.05,0.0,WeatherDisplay:10.37,2013-11-19 03:06:00,
2013-11-18 22:16:00,57.2,33.7,29.92,North,350,0.0,1.0,41,0.00,CLR,,0.05,0.0,WeatherDisplay:10.37,2013-11-19 03:16:00,
2013-11-18 22:21:00,57.2,32.4,29.92,North,349,0.0,1.0,39,0.00,CLR,,0.05,0.0,WeatherDisplay:10.37,2013-11-19 03:21:00,
2013-11-18 22:36:00,56.9,33.4,29.93,North,360,1.0,2.0,41,0.00,CLR,,0.05,0.0,WeatherDisplay:10.37,2013-11-19 03:36:00,
2013-11-18 22:46:00,56.7,33.2,29.93,NNE,16,0.0,1.0,41,0.00,CLR,,0.05,0.0,WeatherDisplay:10.37,2013-11-19 03:46:00,
2013-11-18 22:51:00,56.7,32.6,29.93,North,350,0.0,6.0,40,0.00,CLR,,0.05,0.0,WeatherDisplay:10.37,2013-11-19 03:51:00,
2013-11-18 22:56:00,56.6,33.2,29.93,North,352,0.0,1.0,41,0.00,CLR,,0.05,0.0,WeatherDisplay:10.37,2013-11-19 03:56:00,
2013-11-18 23:01:00,56.6,32.5,29.93,North,355,0.0,5.0,40,0.00,CLR,,0.05,0.0,WeatherDisplay:10.37,2013-11-19 04:01:00,
2013-11-18 23:11:00,56.3,32.9,29.93,NNW,342,0.0,5.0,41,0.00,CLR,,0.05,0.0,WeatherDisplay:10.37,2013-11-19 04:11:00,
2013-11-18 23:16:00,56.2,32.2,29.93,NNW,348,0.0,3.0,40,0.00,CLR,,0.05,0.0,WeatherDisplay:10.37,2013-11-19 04:16:00,
2013-11-18 23:21:00,56.0,32.6,29.93,North,3,0.0,5.0,41,0.00,CLR,,0.05,0.0,WeatherDisplay:10.37,2013-11-19 04:21:00,
2013-11-18 23:26:00,55.9,32.5,29.93,North,349,0.0,3.0,41,0.00,CLR,,0.05,0.0,WeatherDisplay:10.37,2013-11-19 04:26:00,
2013-11-18 23:31:00,55.7,32.4,29.93,NNW,347,0.0,1.0,41,0.00,CLR,,0.05,0.0,WeatherDisplay:10.37,2013-11-19 04:31:00,
2013-11-18 23:36:00,55.6,32.2,29.93,NNW,346,1.0,3.0,41,0.00,CLR,,0.05,0.0,WeatherDisplay:10.37,2013-11-19 04:36:00,
2013-11-18 23:41:00,55.5,32.8,29.93,NNW,342,0.0,2.0,42,0.00,CLR,,0.05,0.0,WeatherDisplay:10.37,2013-11-19 04:41:00,
2013-11-18 23:46:00,55.4,32.1,29.93,North,350,0.0,2.0,41,0.00,CLR,,0.05,0.0,WeatherDisplay:10.37,2013-11-19 04:46:00,
2013-11-18 23:51:00,55.3,32.6,29.94,North,3,0.0,3.0,42,0.00,CLR,,0.05,0.0,WeatherDisplay:10.37,2013-11-19 04:51:00,
2013-11-18 23:56:00,55.1,32.4,29.94,North,358,1.0,7.0,42,0.00,CLR,,0.05,0.0,WeatherDisplay:10.37,2013-11-19 04:56:00,